sensor_id;sensor_type;location;lat;lon;timestamp;P1;durP1;ratioP1;P2;durP2;ratioP2
80408;SDS011;69741;49.464;10.986;2023-05-08T00:00:46;6.73;;;3.33;;
80408;SDS011;69741;49.464;10.986;2023-05-08T00:03:12;7.65;;;3.70;;
80408;SDS011;69741;49.464;10.986;2023-05-08T00:05:39;6.78;;;3.70;;
80408;SDS011;69741;49.464;10.986;2023-05-08T00:08:04;7.57;;;3.65;;
80408;SDS011;69741;49.464;10.986;2023-05-08T00:10:30;6.13;;;3.55;;
80408;SDS011;69741;49.464;10.986;2023-05-08T00:12:55;7.00;;;4.15;;
80408;SDS011;69741;49.464;10.986;2023-05-08T00:15:21;6.65;;;3.63;;
80408;SDS011;69741;49.464;10.986;2023-05-08T00:17:46;6.68;;;4.40;;
80408;SDS011;69741;49.464;10.986;2023-05-08T00:20:11;6.90;;;3.33;;
80408;SDS011;69741;49.464;10.986;2023-05-08T00:22:36;7.33;;;3.97;;
80408;SDS011;69741;49.464;10.986;2023-05-08T00:25:02;5.20;;;2.60;;
80408;SDS011;69741;49.464;10.986;2023-05-08T00:27:29;7.22;;;3.60;;
80408;SDS011;69741;49.464;10.986;2023-05-08T00:29:54;6.37;;;3.63;;
80408;SDS011;69741;49.464;10.986;2023-05-08T00:32:19;7.05;;;3.45;;
80408;SDS011;69741;49.464;10.986;2023-05-08T00:34:44;7.70;;;4.17;;
80408;SDS011;69741;49.464;10.986;2023-05-08T00:37:10;6.37;;;3.80;;
80408;SDS011;69741;49.464;10.986;2023-05-08T00:39:35;7.47;;;3.33;;
80408;SDS011;69741;49.464;10.986;2023-05-08T00:42:00;6.77;;;3.57;;
80408;SDS011;69741;49.464;10.986;2023-05-08T00:44:25;7.20;;;3.80;;
80408;SDS011;69741;49.464;10.986;2023-05-08T00:46:50;6.33;;;3.47;;
80408;SDS011;69741;49.464;10.986;2023-05-08T00:49:16;6.80;;;3.67;;
80408;SDS011;69741;49.464;10.986;2023-05-08T00:51:41;6.93;;;3.97;;
80408;SDS011;69741;49.464;10.986;2023-05-08T00:54:08;7.45;;;3.67;;
80408;SDS011;69741;49.464;10.986;2023-05-08T00:56:33;6.93;;;3.42;;
80408;SDS011;69741;49.464;10.986;2023-05-08T00:58:59;8.05;;;3.45;;
80408;SDS011;69741;49.464;10.986;2023-05-08T01:01:25;6.47;;;2.83;;
80408;SDS011;69741;49.464;10.986;2023-05-08T01:03:50;6.82;;;3.60;;
80408;SDS011;69741;49.464;10.986;2023-05-08T01:06:16;7.10;;;3.42;;
80408;SDS011;69741;49.464;10.986;2023-05-08T01:08:42;6.95;;;3.75;;
80408;SDS011;69741;49.464;10.986;2023-05-08T01:11:24;7.45;;;3.47;;
80408;SDS011;69741;49.464;10.986;2023-05-08T01:14:10;5.35;;;2.88;;
80408;SDS011;69741;49.464;10.986;2023-05-08T01:19:20;7.15;;;3.60;;
80408;SDS011;69741;49.464;10.986;2023-05-08T01:21:55;6.32;;;3.22;;
80408;SDS011;69741;49.464;10.986;2023-05-08T01:32:33;7.10;;;3.50;;
80408;SDS011;69741;49.464;10.986;2023-05-08T01:35:16;5.50;;;2.95;;
80408;SDS011;69741;49.464;10.986;2023-05-08T01:40:34;8.00;;;3.42;;
80408;SDS011;69741;49.464;10.986;2023-05-08T01:43:09;14.15;;;3.50;;
80408;SDS011;69741;49.464;10.986;2023-05-08T01:45:40;6.68;;;3.00;;
80408;SDS011;69741;49.464;10.986;2023-05-08T01:48:09;5.53;;;3.13;;
80408;SDS011;69741;49.464;10.986;2023-05-08T01:50:37;5.88;;;3.13;;
80408;SDS011;69741;49.464;10.986;2023-05-08T01:53:06;5.85;;;3.08;;
80408;SDS011;69741;49.464;10.986;2023-05-08T01:55:34;6.18;;;2.95;;
80408;SDS011;69741;49.464;10.986;2023-05-08T01:58:00;7.22;;;3.40;;
80408;SDS011;69741;49.464;10.986;2023-05-08T02:00:26;5.82;;;3.05;;
80408;SDS011;69741;49.464;10.986;2023-05-08T02:02:52;7.35;;;3.70;;
80408;SDS011;69741;49.464;10.986;2023-05-08T02:05:18;6.10;;;3.30;;
80408;SDS011;69741;49.464;10.986;2023-05-08T02:07:44;7.13;;;3.50;;
80408;SDS011;69741;49.464;10.986;2023-05-08T02:10:10;6.60;;;3.17;;
80408;SDS011;69741;49.464;10.986;2023-05-08T02:12:36;5.68;;;3.22;;
80408;SDS011;69741;49.464;10.986;2023-05-08T02:15:02;7.20;;;2.88;;
80408;SDS011;69741;49.464;10.986;2023-05-08T02:17:29;5.65;;;3.30;;
80408;SDS011;69741;49.464;10.986;2023-05-08T02:19:56;7.88;;;3.40;;
80408;SDS011;69741;49.464;10.986;2023-05-08T02:22:22;5.55;;;3.10;;
80408;SDS011;69741;49.464;10.986;2023-05-08T02:24:47;6.35;;;3.25;;
80408;SDS011;69741;49.464;10.986;2023-05-08T02:27:13;6.38;;;2.80;;
80408;SDS011;69741;49.464;10.986;2023-05-08T02:29:38;6.72;;;2.88;;
80408;SDS011;69741;49.464;10.986;2023-05-08T02:32:04;6.65;;;3.50;;
80408;SDS011;69741;49.464;10.986;2023-05-08T02:34:30;5.75;;;3.10;;
80408;SDS011;69741;49.464;10.986;2023-05-08T02:36:55;5.90;;;3.00;;
80408;SDS011;69741;49.464;10.986;2023-05-08T02:39:23;7.88;;;3.60;;
80408;SDS011;69741;49.464;10.986;2023-05-08T02:41:49;8.40;;;3.55;;
80408;SDS011;69741;49.464;10.986;2023-05-08T02:44:15;6.85;;;3.30;;
80408;SDS011;69741;49.464;10.986;2023-05-08T02:46:57;5.47;;;3.17;;
80408;SDS011;69741;49.464;10.986;2023-05-08T02:49:45;5.40;;;3.35;;
80408;SDS011;69741;49.464;10.986;2023-05-08T02:52:15;5.57;;;3.40;;
80408;SDS011;69741;49.464;10.986;2023-05-08T02:54:55;5.50;;;2.95;;
80408;SDS011;69741;49.464;10.986;2023-05-08T02:57:25;5.63;;;3.42;;
80408;SDS011;69741;49.464;10.986;2023-05-08T02:59:55;5.90;;;2.75;;
80408;SDS011;69741;49.464;10.986;2023-05-08T03:04:50;7.13;;;3.45;;
80408;SDS011;69741;49.464;10.986;2023-05-08T03:07:18;6.57;;;4.60;;
80408;SDS011;69741;49.464;10.986;2023-05-08T03:09:46;6.43;;;3.53;;
80408;SDS011;69741;49.464;10.986;2023-05-08T03:12:16;6.47;;;3.35;;
80408;SDS011;69741;49.464;10.986;2023-05-08T03:14:46;7.45;;;4.22;;
80408;SDS011;69741;49.464;10.986;2023-05-08T03:17:16;7.07;;;3.53;;
80408;SDS011;69741;49.464;10.986;2023-05-08T03:19:43;6.50;;;3.40;;
80408;SDS011;69741;49.464;10.986;2023-05-08T03:22:10;8.55;;;4.00;;
80408;SDS011;69741;49.464;10.986;2023-05-08T03:27:03;8.80;;;4.05;;
80408;SDS011;69741;49.464;10.986;2023-05-08T03:29:29;6.30;;;3.55;;
80408;SDS011;69741;49.464;10.986;2023-05-08T03:31:57;7.88;;;3.53;;
80408;SDS011;69741;49.464;10.986;2023-05-08T03:34:24;6.43;;;2.88;;
80408;SDS011;69741;49.464;10.986;2023-05-08T03:36:50;7.05;;;3.70;;
80408;SDS011;69741;49.464;10.986;2023-05-08T03:39:16;6.88;;;3.92;;
80408;SDS011;69741;49.464;10.986;2023-05-08T03:41:41;7.60;;;3.90;;
80408;SDS011;69741;49.464;10.986;2023-05-08T03:44:06;8.00;;;4.00;;
80408;SDS011;69741;49.464;10.986;2023-05-08T03:46:31;6.82;;;3.67;;
80408;SDS011;69741;49.464;10.986;2023-05-08T03:48:58;10.38;;;5.10;;
80408;SDS011;69741;49.464;10.986;2023-05-08T03:51:24;7.65;;;3.70;;
80408;SDS011;69741;49.464;10.986;2023-05-08T03:53:50;7.57;;;3.45;;
80408;SDS011;69741;49.464;10.986;2023-05-08T03:56:15;7.38;;;3.92;;
80408;SDS011;69741;49.464;10.986;2023-05-08T03:58:46;7.22;;;3.90;;
80408;SDS011;69741;49.464;10.986;2023-05-08T04:01:24;7.45;;;3.63;;
80408;SDS011;69741;49.464;10.986;2023-05-08T04:04:01;8.30;;;4.00;;
80408;SDS011;69741;49.464;10.986;2023-05-08T04:06:28;6.47;;;3.33;;
80408;SDS011;69741;49.464;10.986;2023-05-08T04:09:00;8.25;;;4.43;;
80408;SDS011;69741;49.464;10.986;2023-05-08T04:11:30;7.18;;;5.47;;
80408;SDS011;69741;49.464;10.986;2023-05-08T04:14:01;8.40;;;4.82;;
80408;SDS011;69741;49.464;10.986;2023-05-08T04:16:27;8.98;;;4.93;;
80408;SDS011;69741;49.464;10.986;2023-05-08T04:19:00;8.52;;;4.25;;
80408;SDS011;69741;49.464;10.986;2023-05-08T04:21:25;7.15;;;4.18;;
80408;SDS011;69741;49.464;10.986;2023-05-08T04:23:52;7.82;;;3.67;;
80408;SDS011;69741;49.464;10.986;2023-05-08T04:26:18;7.88;;;3.83;;
80408;SDS011;69741;49.464;10.986;2023-05-08T04:28:43;8.77;;;4.13;;
80408;SDS011;69741;49.464;10.986;2023-05-08T04:31:10;8.85;;;4.60;;
80408;SDS011;69741;49.464;10.986;2023-05-08T04:33:37;9.88;;;4.13;;
80408;SDS011;69741;49.464;10.986;2023-05-08T04:36:03;11.02;;;4.97;;
80408;SDS011;69741;49.464;10.986;2023-05-08T04:38:28;8.00;;;4.95;;
80408;SDS011;69741;49.464;10.986;2023-05-08T04:40:53;11.75;;;4.55;;
80408;SDS011;69741;49.464;10.986;2023-05-08T04:43:19;8.75;;;5.00;;
80408;SDS011;69741;49.464;10.986;2023-05-08T04:45:44;10.45;;;5.30;;
80408;SDS011;69741;49.464;10.986;2023-05-08T04:48:09;7.80;;;4.60;;
80408;SDS011;69741;49.464;10.986;2023-05-08T04:50:35;8.83;;;4.93;;
80408;SDS011;69741;49.464;10.986;2023-05-08T04:53:00;8.60;;;4.87;;
80408;SDS011;69741;49.464;10.986;2023-05-08T04:55:25;7.53;;;4.07;;
80408;SDS011;69741;49.464;10.986;2023-05-08T04:57:50;7.83;;;3.80;;
80408;SDS011;69741;49.464;10.986;2023-05-08T05:00:16;7.87;;;4.63;;
80408;SDS011;69741;49.464;10.986;2023-05-08T05:02:41;7.07;;;3.72;;
80408;SDS011;69741;49.464;10.986;2023-05-08T05:05:06;8.77;;;4.53;;
80408;SDS011;69741;49.464;10.986;2023-05-08T05:07:31;8.60;;;4.47;;
80408;SDS011;69741;49.464;10.986;2023-05-08T05:09:56;8.73;;;4.30;;
80408;SDS011;69741;49.464;10.986;2023-05-08T05:12:23;7.47;;;4.03;;
80408;SDS011;69741;49.464;10.986;2023-05-08T05:14:48;8.25;;;4.13;;
80408;SDS011;69741;49.464;10.986;2023-05-08T05:17:13;7.65;;;3.97;;
80408;SDS011;69741;49.464;10.986;2023-05-08T05:19:39;8.70;;;4.30;;
80408;SDS011;69741;49.464;10.986;2023-05-08T05:22:04;8.30;;;5.35;;
80408;SDS011;69741;49.464;10.986;2023-05-08T05:24:30;7.60;;;4.20;;
80408;SDS011;69741;49.464;10.986;2023-05-08T05:26:55;10.07;;;4.53;;
80408;SDS011;69741;49.464;10.986;2023-05-08T05:29:20;6.70;;;3.83;;
80408;SDS011;69741;49.464;10.986;2023-05-08T05:31:45;8.33;;;4.50;;
80408;SDS011;69741;49.464;10.986;2023-05-08T05:34:11;8.15;;;4.35;;
80408;SDS011;69741;49.464;10.986;2023-05-08T05:36:36;10.20;;;5.40;;
80408;SDS011;69741;49.464;10.986;2023-05-08T05:39:01;8.60;;;4.27;;
80408;SDS011;69741;49.464;10.986;2023-05-08T05:41:27;10.35;;;4.30;;
80408;SDS011;69741;49.464;10.986;2023-05-08T05:43:52;6.93;;;3.63;;
80408;SDS011;69741;49.464;10.986;2023-05-08T05:46:17;9.60;;;5.13;;
80408;SDS011;69741;49.464;10.986;2023-05-08T05:48:42;7.63;;;4.50;;
80408;SDS011;69741;49.464;10.986;2023-05-08T05:51:07;9.57;;;4.65;;
80408;SDS011;69741;49.464;10.986;2023-05-08T05:53:33;8.57;;;4.60;;
80408;SDS011;69741;49.464;10.986;2023-05-08T05:55:58;7.50;;;3.93;;
80408;SDS011;69741;49.464;10.986;2023-05-08T05:58:23;8.57;;;4.67;;
80408;SDS011;69741;49.464;10.986;2023-05-08T06:00:48;12.55;;;5.45;;
80408;SDS011;69741;49.464;10.986;2023-05-08T06:03:13;8.57;;;5.30;;
80408;SDS011;69741;49.464;10.986;2023-05-08T06:05:39;8.63;;;4.33;;
80408;SDS011;69741;49.464;10.986;2023-05-08T06:08:04;10.80;;;4.70;;
80408;SDS011;69741;49.464;10.986;2023-05-08T06:10:29;9.15;;;5.18;;
80408;SDS011;69741;49.464;10.986;2023-05-08T06:12:55;8.10;;;4.90;;
80408;SDS011;69741;49.464;10.986;2023-05-08T06:15:20;8.82;;;4.45;;
80408;SDS011;69741;49.464;10.986;2023-05-08T06:17:46;7.25;;;4.70;;
80408;SDS011;69741;49.464;10.986;2023-05-08T06:20:11;9.87;;;5.27;;
80408;SDS011;69741;49.464;10.986;2023-05-08T06:22:37;8.02;;;5.15;;
80408;SDS011;69741;49.464;10.986;2023-05-08T06:25:04;11.43;;;5.78;;
80408;SDS011;69741;49.464;10.986;2023-05-08T06:27:31;10.10;;;5.10;;
80408;SDS011;69741;49.464;10.986;2023-05-08T06:29:56;7.22;;;4.65;;
80408;SDS011;69741;49.464;10.986;2023-05-08T06:32:21;8.57;;;4.90;;
80408;SDS011;69741;49.464;10.986;2023-05-08T06:34:46;9.23;;;4.60;;
80408;SDS011;69741;49.464;10.986;2023-05-08T06:37:12;7.35;;;4.13;;
80408;SDS011;69741;49.464;10.986;2023-05-08T06:39:37;8.73;;;4.77;;
80408;SDS011;69741;49.464;10.986;2023-05-08T06:42:02;9.43;;;5.50;;
80408;SDS011;69741;49.464;10.986;2023-05-08T06:44:30;8.15;;;4.45;;
80408;SDS011;69741;49.464;10.986;2023-05-08T06:46:55;8.13;;;4.73;;
80408;SDS011;69741;49.464;10.986;2023-05-08T06:49:20;9.45;;;5.55;;
80408;SDS011;69741;49.464;10.986;2023-05-08T06:51:46;8.60;;;4.30;;
80408;SDS011;69741;49.464;10.986;2023-05-08T06:54:12;9.40;;;5.10;;
80408;SDS011;69741;49.464;10.986;2023-05-08T06:56:37;10.07;;;5.93;;
80408;SDS011;69741;49.464;10.986;2023-05-08T06:59:02;9.27;;;4.75;;
80408;SDS011;69741;49.464;10.986;2023-05-08T07:01:27;9.75;;;4.70;;
80408;SDS011;69741;49.464;10.986;2023-05-08T07:03:52;7.83;;;4.67;;
80408;SDS011;69741;49.464;10.986;2023-05-08T07:06:18;9.18;;;4.50;;
80408;SDS011;69741;49.464;10.986;2023-05-08T07:08:43;8.60;;;5.23;;
80408;SDS011;69741;49.464;10.986;2023-05-08T07:11:08;8.80;;;4.30;;
80408;SDS011;69741;49.464;10.986;2023-05-08T07:13:36;9.20;;;4.32;;
80408;SDS011;69741;49.464;10.986;2023-05-08T07:16:01;8.80;;;5.28;;
80408;SDS011;69741;49.464;10.986;2023-05-08T07:18:26;9.32;;;4.90;;
80408;SDS011;69741;49.464;10.986;2023-05-08T07:20:52;11.00;;;5.03;;
80408;SDS011;69741;49.464;10.986;2023-05-08T07:23:17;9.83;;;4.67;;
80408;SDS011;69741;49.464;10.986;2023-05-08T07:25:42;8.57;;;4.53;;
80408;SDS011;69741;49.464;10.986;2023-05-08T07:28:07;8.50;;;4.30;;
80408;SDS011;69741;49.464;10.986;2023-05-08T07:30:32;12.23;;;4.85;;
80408;SDS011;69741;49.464;10.986;2023-05-08T07:32:57;7.82;;;4.88;;
80408;SDS011;69741;49.464;10.986;2023-05-08T07:35:23;8.30;;;5.35;;
80408;SDS011;69741;49.464;10.986;2023-05-08T07:37:48;8.07;;;5.68;;
80408;SDS011;69741;49.464;10.986;2023-05-08T07:40:13;7.90;;;4.28;;
80408;SDS011;69741;49.464;10.986;2023-05-08T07:42:39;8.40;;;4.43;;
80408;SDS011;69741;49.464;10.986;2023-05-08T07:45:05;7.03;;;4.35;;
80408;SDS011;69741;49.464;10.986;2023-05-08T07:47:30;9.05;;;4.75;;
80408;SDS011;69741;49.464;10.986;2023-05-08T07:49:56;8.20;;;4.85;;
80408;SDS011;69741;49.464;10.986;2023-05-08T07:52:21;8.20;;;5.15;;
80408;SDS011;69741;49.464;10.986;2023-05-08T07:54:47;10.73;;;6.07;;
80408;SDS011;69741;49.464;10.986;2023-05-08T07:57:12;9.88;;;5.25;;
80408;SDS011;69741;49.464;10.986;2023-05-08T07:59:37;7.93;;;4.70;;
80408;SDS011;69741;49.464;10.986;2023-05-08T08:02:02;8.93;;;5.07;;
80408;SDS011;69741;49.464;10.986;2023-05-08T08:04:27;7.97;;;4.97;;
80408;SDS011;69741;49.464;10.986;2023-05-08T08:06:52;9.90;;;4.63;;
80408;SDS011;69741;49.464;10.986;2023-05-08T08:09:18;7.00;;;3.90;;
80408;SDS011;69741;49.464;10.986;2023-05-08T08:11:43;8.90;;;4.68;;
80408;SDS011;69741;49.464;10.986;2023-05-08T08:14:08;8.48;;;4.43;;
80408;SDS011;69741;49.464;10.986;2023-05-08T08:16:33;8.73;;;4.60;;
80408;SDS011;69741;49.464;10.986;2023-05-08T08:18:58;8.02;;;5.00;;
80408;SDS011;69741;49.464;10.986;2023-05-08T08:21:23;8.68;;;4.95;;
80408;SDS011;69741;49.464;10.986;2023-05-08T08:23:48;7.53;;;4.47;;
80408;SDS011;69741;49.464;10.986;2023-05-08T08:26:14;7.20;;;4.40;;
80408;SDS011;69741;49.464;10.986;2023-05-08T08:28:39;9.50;;;5.20;;
80408;SDS011;69741;49.464;10.986;2023-05-08T08:31:04;9.80;;;4.77;;
80408;SDS011;69741;49.464;10.986;2023-05-08T08:33:29;11.67;;;4.97;;
80408;SDS011;69741;49.464;10.986;2023-05-08T08:35:55;7.10;;;4.40;;
80408;SDS011;69741;49.464;10.986;2023-05-08T08:38:20;9.67;;;6.50;;
80408;SDS011;69741;49.464;10.986;2023-05-08T08:40:45;10.15;;;5.35;;
80408;SDS011;69741;49.464;10.986;2023-05-08T08:43:10;11.27;;;5.57;;
80408;SDS011;69741;49.464;10.986;2023-05-08T08:45:36;8.57;;;4.60;;
80408;SDS011;69741;49.464;10.986;2023-05-08T08:48:01;8.60;;;4.47;;
80408;SDS011;69741;49.464;10.986;2023-05-08T08:50:29;8.90;;;5.43;;
80408;SDS011;69741;49.464;10.986;2023-05-08T08:52:57;9.88;;;6.13;;
80408;SDS011;69741;49.464;10.986;2023-05-08T08:55:24;9.80;;;4.70;;
80408;SDS011;69741;49.464;10.986;2023-05-08T09:00:15;8.63;;;4.95;;
80408;SDS011;69741;49.464;10.986;2023-05-08T09:02:41;8.38;;;4.78;;
80408;SDS011;69741;49.464;10.986;2023-05-08T09:05:06;10.23;;;5.03;;
80408;SDS011;69741;49.464;10.986;2023-05-08T09:07:32;7.72;;;4.82;;
80408;SDS011;69741;49.464;10.986;2023-05-08T09:09:57;9.50;;;5.32;;
80408;SDS011;69741;49.464;10.986;2023-05-08T09:12:23;10.05;;;5.13;;
80408;SDS011;69741;49.464;10.986;2023-05-08T09:14:49;8.23;;;5.43;;
80408;SDS011;69741;49.464;10.986;2023-05-08T09:17:14;9.73;;;5.15;;
80408;SDS011;69741;49.464;10.986;2023-05-08T09:19:39;8.40;;;4.80;;
80408;SDS011;69741;49.464;10.986;2023-05-08T09:22:05;8.25;;;4.38;;
80408;SDS011;69741;49.464;10.986;2023-05-08T09:27:21;9.80;;;5.45;;
80408;SDS011;69741;49.464;10.986;2023-05-08T09:30:08;8.68;;;5.15;;
80408;SDS011;69741;49.464;10.986;2023-05-08T09:32:33;7.45;;;4.90;;
80408;SDS011;69741;49.464;10.986;2023-05-08T09:34:58;9.55;;;5.25;;
80408;SDS011;69741;49.464;10.986;2023-05-08T09:37:24;8.35;;;5.63;;
80408;SDS011;69741;49.464;10.986;2023-05-08T09:39:49;8.20;;;5.10;;
80408;SDS011;69741;49.464;10.986;2023-05-08T09:42:14;8.63;;;5.63;;
80408;SDS011;69741;49.464;10.986;2023-05-08T09:47:09;9.80;;;5.43;;
80408;SDS011;69741;49.464;10.986;2023-05-08T09:49:35;8.85;;;4.65;;
80408;SDS011;69741;49.464;10.986;2023-05-08T09:52:00;8.37;;;4.77;;
80408;SDS011;69741;49.464;10.986;2023-05-08T09:54:25;9.33;;;5.40;;
80408;SDS011;69741;49.464;10.986;2023-05-08T09:56:50;8.47;;;5.10;;
80408;SDS011;69741;49.464;10.986;2023-05-08T09:59:23;10.25;;;5.28;;
80408;SDS011;69741;49.464;10.986;2023-05-08T10:01:48;10.88;;;5.70;;
80408;SDS011;69741;49.464;10.986;2023-05-08T10:04:14;8.75;;;5.00;;
80408;SDS011;69741;49.464;10.986;2023-05-08T10:06:39;9.35;;;5.40;;
80408;SDS011;69741;49.464;10.986;2023-05-08T10:09:13;9.38;;;5.82;;
80408;SDS011;69741;49.464;10.986;2023-05-08T10:11:39;9.00;;;5.72;;
80408;SDS011;69741;49.464;10.986;2023-05-08T10:14:05;8.63;;;5.15;;
80408;SDS011;69741;49.464;10.986;2023-05-08T10:16:30;7.90;;;5.30;;
80408;SDS011;69741;49.464;10.986;2023-05-08T10:18:59;9.00;;;4.95;;
80408;SDS011;69741;49.464;10.986;2023-05-08T10:21:28;11.10;;;6.40;;
80408;SDS011;69741;49.464;10.986;2023-05-08T10:23:53;8.35;;;5.43;;
80408;SDS011;69741;49.464;10.986;2023-05-08T10:26:25;10.63;;;6.00;;
80408;SDS011;69741;49.464;10.986;2023-05-08T10:28:55;8.65;;;5.38;;
80408;SDS011;69741;49.464;10.986;2023-05-08T10:31:30;8.52;;;5.20;;
80408;SDS011;69741;49.464;10.986;2023-05-08T10:33:58;7.53;;;4.80;;
80408;SDS011;69741;49.464;10.986;2023-05-08T10:36:25;8.77;;;4.97;;
80408;SDS011;69741;49.464;10.986;2023-05-08T10:38:52;10.30;;;5.22;;
80408;SDS011;69741;49.464;10.986;2023-05-08T10:41:17;7.90;;;5.03;;
80408;SDS011;69741;49.464;10.986;2023-05-08T10:43:43;9.02;;;5.47;;
80408;SDS011;69741;49.464;10.986;2023-05-08T10:46:13;8.75;;;5.65;;
80408;SDS011;69741;49.464;10.986;2023-05-08T10:48:49;8.98;;;5.72;;
80408;SDS011;69741;49.464;10.986;2023-05-08T10:53:47;8.95;;;5.45;;
80408;SDS011;69741;49.464;10.986;2023-05-08T10:56:17;9.32;;;6.32;;
80408;SDS011;69741;49.464;10.986;2023-05-08T10:58:42;11.70;;;6.00;;
80408;SDS011;69741;49.464;10.986;2023-05-08T11:03:37;8.63;;;5.70;;
80408;SDS011;69741;49.464;10.986;2023-05-08T11:06:02;10.10;;;5.13;;
80408;SDS011;69741;49.464;10.986;2023-05-08T11:08:28;11.57;;;5.10;;
80408;SDS011;69741;49.464;10.986;2023-05-08T11:13:25;8.52;;;5.18;;
80408;SDS011;69741;49.464;10.986;2023-05-08T11:15:51;9.02;;;5.75;;
80408;SDS011;69741;49.464;10.986;2023-05-08T11:18:16;9.33;;;5.50;;
80408;SDS011;69741;49.464;10.986;2023-05-08T11:20:54;10.47;;;5.43;;
80408;SDS011;69741;49.464;10.986;2023-05-08T11:23:20;9.82;;;5.40;;
80408;SDS011;69741;49.464;10.986;2023-05-08T11:25:46;9.02;;;5.22;;
80408;SDS011;69741;49.464;10.986;2023-05-08T11:28:11;8.97;;;5.00;;
80408;SDS011;69741;49.464;10.986;2023-05-08T11:30:37;9.32;;;4.95;;
80408;SDS011;69741;49.464;10.986;2023-05-08T11:35:44;9.03;;;5.70;;
80408;SDS011;69741;49.464;10.986;2023-05-08T11:38:19;8.48;;;5.35;;
80408;SDS011;69741;49.464;10.986;2023-05-08T11:40:49;10.27;;;5.90;;
80408;SDS011;69741;49.464;10.986;2023-05-08T11:46:06;8.85;;;4.95;;
80408;SDS011;69741;49.464;10.986;2023-05-08T11:48:32;8.80;;;5.38;;
80408;SDS011;69741;49.464;10.986;2023-05-08T11:50:58;10.43;;;5.07;;
80408;SDS011;69741;49.464;10.986;2023-05-08T11:53:23;8.80;;;5.80;;
80408;SDS011;69741;49.464;10.986;2023-05-08T11:55:50;9.83;;;6.27;;
80408;SDS011;69741;49.464;10.986;2023-05-08T11:58:16;11.07;;;5.57;;
80408;SDS011;69741;49.464;10.986;2023-05-08T12:00:41;9.07;;;5.63;;
80408;SDS011;69741;49.464;10.986;2023-05-08T12:03:10;9.10;;;5.45;;
80408;SDS011;69741;49.464;10.986;2023-05-08T12:05:36;8.15;;;5.57;;
80408;SDS011;69741;49.464;10.986;2023-05-08T12:08:01;9.13;;;5.53;;
80408;SDS011;69741;49.464;10.986;2023-05-08T12:10:28;13.23;;;9.35;;
80408;SDS011;69741;49.464;10.986;2023-05-08T12:12:53;8.82;;;5.18;;
80408;SDS011;69741;49.464;10.986;2023-05-08T12:15:18;8.20;;;5.43;;
80408;SDS011;69741;49.464;10.986;2023-05-08T12:17:43;10.77;;;5.97;;
80408;SDS011;69741;49.464;10.986;2023-05-08T12:20:09;8.60;;;5.07;;
80408;SDS011;69741;49.464;10.986;2023-05-08T12:25:02;8.30;;;5.53;;
80408;SDS011;69741;49.464;10.986;2023-05-08T12:27:27;8.48;;;5.72;;
80408;SDS011;69741;49.464;10.986;2023-05-08T12:29:52;10.07;;;6.03;;
80408;SDS011;69741;49.464;10.986;2023-05-08T12:32:18;8.20;;;5.22;;
80408;SDS011;69741;49.464;10.986;2023-05-08T12:34:43;7.77;;;4.67;;
80408;SDS011;69741;49.464;10.986;2023-05-08T12:37:08;9.55;;;6.28;;
80408;SDS011;69741;49.464;10.986;2023-05-08T12:39:34;8.02;;;5.13;;
80408;SDS011;69741;49.464;10.986;2023-05-08T12:42:00;9.23;;;6.22;;
80408;SDS011;69741;49.464;10.986;2023-05-08T12:44:25;8.95;;;5.15;;
80408;SDS011;69741;49.464;10.986;2023-05-08T12:46:54;12.13;;;6.97;;
80408;SDS011;69741;49.464;10.986;2023-05-08T12:49:26;10.85;;;7.25;;
80408;SDS011;69741;49.464;10.986;2023-05-08T12:51:59;7.68;;;5.57;;
80408;SDS011;69741;49.464;10.986;2023-05-08T12:54:30;8.43;;;5.22;;
80408;SDS011;69741;49.464;10.986;2023-05-08T12:56:55;9.43;;;5.32;;
80408;SDS011;69741;49.464;10.986;2023-05-08T12:59:27;8.32;;;5.45;;
80408;SDS011;69741;49.464;10.986;2023-05-08T13:01:52;8.98;;;5.75;;
80408;SDS011;69741;49.464;10.986;2023-05-08T13:04:17;8.83;;;5.20;;
80408;SDS011;69741;49.464;10.986;2023-05-08T13:06:43;7.65;;;5.10;;
80408;SDS011;69741;49.464;10.986;2023-05-08T13:09:17;7.70;;;5.13;;
80408;SDS011;69741;49.464;10.986;2023-05-08T13:11:42;9.30;;;6.00;;
80408;SDS011;69741;49.464;10.986;2023-05-08T13:14:07;8.13;;;5.20;;
80408;SDS011;69741;49.464;10.986;2023-05-08T13:16:40;8.27;;;5.20;;
80408;SDS011;69741;49.464;10.986;2023-05-08T13:19:05;10.75;;;6.07;;
80408;SDS011;69741;49.464;10.986;2023-05-08T13:21:30;9.38;;;5.75;;
80408;SDS011;69741;49.464;10.986;2023-05-08T13:23:55;9.40;;;5.30;;
80408;SDS011;69741;49.464;10.986;2023-05-08T13:26:21;8.00;;;5.77;;
80408;SDS011;69741;49.464;10.986;2023-05-08T13:28:46;9.30;;;6.33;;
80408;SDS011;69741;49.464;10.986;2023-05-08T13:31:11;7.88;;;5.47;;
80408;SDS011;69741;49.464;10.986;2023-05-08T13:33:36;8.07;;;5.22;;
80408;SDS011;69741;49.464;10.986;2023-05-08T13:36:02;11.15;;;6.20;;
80408;SDS011;69741;49.464;10.986;2023-05-08T13:38:27;8.48;;;5.25;;
80408;SDS011;69741;49.464;10.986;2023-05-08T13:40:52;8.00;;;5.03;;
80408;SDS011;69741;49.464;10.986;2023-05-08T13:43:17;8.20;;;5.15;;
80408;SDS011;69741;49.464;10.986;2023-05-08T13:45:43;13.43;;;7.15;;
80408;SDS011;69741;49.464;10.986;2023-05-08T13:48:08;11.23;;;5.75;;
80408;SDS011;69741;49.464;10.986;2023-05-08T13:50:33;8.43;;;5.03;;
80408;SDS011;69741;49.464;10.986;2023-05-08T13:52:58;9.43;;;5.90;;
80408;SDS011;69741;49.464;10.986;2023-05-08T13:55:23;8.57;;;5.53;;
80408;SDS011;69741;49.464;10.986;2023-05-08T13:57:48;7.80;;;4.87;;
80408;SDS011;69741;49.464;10.986;2023-05-08T14:00:14;9.13;;;5.43;;
80408;SDS011;69741;49.464;10.986;2023-05-08T14:02:39;8.10;;;4.88;;
80408;SDS011;69741;49.464;10.986;2023-05-08T14:05:07;9.10;;;5.43;;
80408;SDS011;69741;49.464;10.986;2023-05-08T14:07:33;10.15;;;5.22;;
80408;SDS011;69741;49.464;10.986;2023-05-08T14:09:58;9.40;;;5.10;;
80408;SDS011;69741;49.464;10.986;2023-05-08T14:12:23;9.17;;;5.20;;
80408;SDS011;69741;49.464;10.986;2023-05-08T14:14:48;8.93;;;5.07;;
80408;SDS011;69741;49.464;10.986;2023-05-08T14:17:14;8.90;;;5.85;;
80408;SDS011;69741;49.464;10.986;2023-05-08T14:19:39;24.37;;;6.60;;
80408;SDS011;69741;49.464;10.986;2023-05-08T14:22:04;8.23;;;5.38;;
80408;SDS011;69741;49.464;10.986;2023-05-08T14:24:30;9.23;;;5.75;;
80408;SDS011;69741;49.464;10.986;2023-05-08T14:26:56;13.90;;;6.45;;
80408;SDS011;69741;49.464;10.986;2023-05-08T14:29:21;10.73;;;6.28;;
80408;SDS011;69741;49.464;10.986;2023-05-08T14:31:46;10.98;;;6.05;;
80408;SDS011;69741;49.464;10.986;2023-05-08T14:34:11;9.50;;;5.00;;
80408;SDS011;69741;49.464;10.986;2023-05-08T14:36:36;7.70;;;5.30;;
80408;SDS011;69741;49.464;10.986;2023-05-08T14:39:02;8.67;;;5.40;;
80408;SDS011;69741;49.464;10.986;2023-05-08T14:41:27;10.30;;;8.18;;
80408;SDS011;69741;49.464;10.986;2023-05-08T14:43:53;7.45;;;4.80;;
80408;SDS011;69741;49.464;10.986;2023-05-08T14:46:18;11.45;;;6.18;;
80408;SDS011;69741;49.464;10.986;2023-05-08T14:48:43;8.52;;;5.35;;
80408;SDS011;69741;49.464;10.986;2023-05-08T14:51:08;7.97;;;5.47;;
80408;SDS011;69741;49.464;10.986;2023-05-08T14:53:35;8.57;;;5.40;;
80408;SDS011;69741;49.464;10.986;2023-05-08T14:56:00;7.80;;;5.50;;
80408;SDS011;69741;49.464;10.986;2023-05-08T14:58:26;9.27;;;4.80;;
80408;SDS011;69741;49.464;10.986;2023-05-08T15:00:51;8.73;;;5.15;;
80408;SDS011;69741;49.464;10.986;2023-05-08T15:03:16;8.60;;;5.57;;
80408;SDS011;69741;49.464;10.986;2023-05-08T15:05:41;9.80;;;5.57;;
80408;SDS011;69741;49.464;10.986;2023-05-08T15:08:07;9.35;;;4.63;;
80408;SDS011;69741;49.464;10.986;2023-05-08T15:10:33;8.93;;;5.60;;